sensor_id;sensor_type;location;lat;lon;timestamp;temperature;humidity
21316;DHT22;10817;55.820;13.030;2024-03-29T00:00:28;8.70;99.90
21316;DHT22;10817;55.820;13.030;2024-03-29T00:03:03;5.70;99.90
21316;DHT22;10817;55.820;13.030;2024-03-29T00:05:29;6.20;99.90
21316;DHT22;10817;55.820;13.030;2024-03-29T00:07:55;6.00;99.90
21316;DHT22;10817;55.820;13.030;2024-03-29T00:10:21;5.30;99.90
21316;DHT22;10817;55.820;13.030;2024-03-29T00:19:32;5.50;99.90
21316;DHT22;10817;55.820;13.030;2024-03-29T00:21:58;5.20;99.90
21316;DHT22;10817;55.820;13.030;2024-03-29T00:24:41;5.90;99.90
21316;DHT22;10817;55.820;13.030;2024-03-29T00:30:24;5.50;99.90
21316;DHT22;10817;55.820;13.030;2024-03-29T00:32:50;5.40;99.90
21316;DHT22;10817;55.820;13.030;2024-03-29T00:35:17;5.40;99.90
21316;DHT22;10817;55.820;13.030;2024-03-29T00:37:43;5.40;99.90
21316;DHT22;10817;55.820;13.030;2024-03-29T00:40:10;5.30;99.90
21316;DHT22;10817;55.820;13.030;2024-03-29T00:42:36;5.30;99.90
21316;DHT22;10817;55.820;13.030;2024-03-29T00:45:02;5.30;99.90
21316;DHT22;10817;55.820;13.030;2024-03-29T00:47:28;5.30;99.90
21316;DHT22;10817;55.820;13.030;2024-03-29T00:49:54;6.40;99.90
21316;DHT22;10817;55.820;13.030;2024-03-29T00:52:22;5.40;99.90
21316;DHT22;10817;55.820;13.030;2024-03-29T00:54:47;6.30;99.90
21316;DHT22;10817;55.820;13.030;2024-03-29T00:57:13;5.40;99.90
21316;DHT22;10817;55.820;13.030;2024-03-29T00:59:39;5.40;99.90
21316;DHT22;10817;55.820;13.030;2024-03-29T01:02:05;5.50;99.90
21316;DHT22;10817;55.820;13.030;2024-03-29T01:04:36;5.50;99.90
21316;DHT22;10817;55.820;13.030;2024-03-29T01:07:03;5.40;99.90
21316;DHT22;10817;55.820;13.030;2024-03-29T01:09:30;5.80;99.90
21316;DHT22;10817;55.820;13.030;2024-03-29T01:11:57;7.50;99.90
21316;DHT22;10817;55.820;13.030;2024-03-29T01:14:23;5.50;99.90
21316;DHT22;10817;55.820;13.030;2024-03-29T01:16:49;5.70;99.90
21316;DHT22;10817;55.820;13.030;2024-03-29T01:19:15;5.50;99.90
21316;DHT22;10817;55.820;13.030;2024-03-29T01:21:41;5.50;99.90
21316;DHT22;10817;55.820;13.030;2024-03-29T01:24:07;5.60;99.90
21316;DHT22;10817;55.820;13.030;2024-03-29T01:26:34;5.50;99.90
21316;DHT22;10817;55.820;13.030;2024-03-29T01:29:00;5.60;99.90
21316;DHT22;10817;55.820;13.030;2024-03-29T01:31:26;5.60;99.90
21316;DHT22;10817;55.820;13.030;2024-03-29T01:33:52;5.60;99.90
21316;DHT22;10817;55.820;13.030;2024-03-29T01:36:18;5.60;99.90
21316;DHT22;10817;55.820;13.030;2024-03-29T01:38:44;5.60;99.90
21316;DHT22;10817;55.820;13.030;2024-03-29T01:41:10;5.60;99.90
21316;DHT22;10817;55.820;13.030;2024-03-29T01:43:37;5.60;99.90
21316;DHT22;10817;55.820;13.030;2024-03-29T01:46:05;7.20;99.90
21316;DHT22;10817;55.820;13.030;2024-03-29T01:48:33;5.60;99.90
21316;DHT22;10817;55.820;13.030;2024-03-29T01:51:01;5.60;99.90
21316;DHT22;10817;55.820;13.030;2024-03-29T01:53:28;5.60;99.90
21316;DHT22;10817;55.820;13.030;2024-03-29T01:55:57;5.60;99.90
21316;DHT22;10817;55.820;13.030;2024-03-29T01:58:24;5.60;99.90
21316;DHT22;10817;55.820;13.030;2024-03-29T02:00:53;5.60;99.90
21316;DHT22;10817;55.820;13.030;2024-03-29T02:03:20;5.60;99.90
21316;DHT22;10817;55.820;13.030;2024-03-29T02:05:48;5.60;99.90
21316;DHT22;10817;55.820;13.030;2024-03-29T02:08:16;5.60;99.90
21316;DHT22;10817;55.820;13.030;2024-03-29T02:10:43;5.60;99.90
21316;DHT22;10817;55.820;13.030;2024-03-29T02:13:12;5.60;99.90
21316;DHT22;10817;55.820;13.030;2024-03-29T02:15:39;5.60;99.90
21316;DHT22;10817;55.820;13.030;2024-03-29T02:18:08;5.60;99.90
21316;DHT22;10817;55.820;13.030;2024-03-29T02:20:35;5.60;99.90
21316;DHT22;10817;55.820;13.030;2024-03-29T02:23:10;5.60;99.90
21316;DHT22;10817;55.820;13.030;2024-03-29T02:25:39;5.60;99.90
21316;DHT22;10817;55.820;13.030;2024-03-29T02:28:06;5.60;99.90
21316;DHT22;10817;55.820;13.030;2024-03-29T02:30:33;5.60;99.90
21316;DHT22;10817;55.820;13.030;2024-03-29T02:33:00;5.60;99.90
21316;DHT22;10817;55.820;13.030;2024-03-29T02:35:28;5.70;99.90
21316;DHT22;10817;55.820;13.030;2024-03-29T02:37:55;5.80;99.90
21316;DHT22;10817;55.820;13.030;2024-03-29T02:40:22;5.80;99.90
21316;DHT22;10817;55.820;13.030;2024-03-29T02:42:50;5.80;99.90
21316;DHT22;10817;55.820;13.030;2024-03-29T02:45:17;5.90;99.90
21316;DHT22;10817;55.820;13.030;2024-03-29T02:47:44;5.90;99.90
21316;DHT22;10817;55.820;13.030;2024-03-29T02:50:15;5.80;99.90
21316;DHT22;10817;55.820;13.030;2024-03-29T02:52:42;5.90;99.90
21316;DHT22;10817;55.820;13.030;2024-03-29T02:55:08;5.90;99.90
21316;DHT22;10817;55.820;13.030;2024-03-29T02:57:36;5.90;99.90
21316;DHT22;10817;55.820;13.030;2024-03-29T03:00:04;5.90;99.90
21316;DHT22;10817;55.820;13.030;2024-03-29T03:02:31;5.90;99.90
21316;DHT22;10817;55.820;13.030;2024-03-29T03:04:56;5.80;99.90
21316;DHT22;10817;55.820;13.030;2024-03-29T03:07:24;5.80;99.90
21316;DHT22;10817;55.820;13.030;2024-03-29T03:10:09;5.80;99.90
21316;DHT22;10817;55.820;13.030;2024-03-29T03:12:53;5.80;99.90
21316;DHT22;10817;55.820;13.030;2024-03-29T03:15:22;5.80;99.90
21316;DHT22;10817;55.820;13.030;2024-03-29T03:17:47;5.80;99.90
21316;DHT22;10817;55.820;13.030;2024-03-29T03:20:14;5.80;99.90
21316;DHT22;10817;55.820;13.030;2024-03-29T03:22:42;5.80;99.90
21316;DHT22;10817;55.820;13.030;2024-03-29T03:25:08;5.80;99.90
21316;DHT22;10817;55.820;13.030;2024-03-29T03:27:34;5.80;99.90
21316;DHT22;10817;55.820;13.030;2024-03-29T03:30:01;5.50;99.90
21316;DHT22;10817;55.820;13.030;2024-03-29T03:32:28;5.70;99.90
21316;DHT22;10817;55.820;13.030;2024-03-29T03:34:55;5.70;99.90
21316;DHT22;10817;55.820;13.030;2024-03-29T03:37:21;6.30;99.90
21316;DHT22;10817;55.820;13.030;2024-03-29T03:39:48;5.70;99.90
21316;DHT22;10817;55.820;13.030;2024-03-29T03:42:14;5.70;99.90
21316;DHT22;10817;55.820;13.030;2024-03-29T03:44:40;5.70;99.90
21316;DHT22;10817;55.820;13.030;2024-03-29T03:47:06;5.70;99.90
21316;DHT22;10817;55.820;13.030;2024-03-29T03:49:34;5.70;99.90
21316;DHT22;10817;55.820;13.030;2024-03-29T03:52:00;5.70;99.90
21316;DHT22;10817;55.820;13.030;2024-03-29T03:54:28;5.70;99.90
21316;DHT22;10817;55.820;13.030;2024-03-29T03:56:54;5.70;99.90
21316;DHT22;10817;55.820;13.030;2024-03-29T03:59:21;5.70;99.90
21316;DHT22;10817;55.820;13.030;2024-03-29T04:01:47;5.70;99.90
21316;DHT22;10817;55.820;13.030;2024-03-29T04:04:17;5.70;99.90
21316;DHT22;10817;55.820;13.030;2024-03-29T04:06:44;5.60;99.90
21316;DHT22;10817;55.820;13.030;2024-03-29T04:09:10;5.60;99.90
21316;DHT22;10817;55.820;13.030;2024-03-29T04:11:36;5.60;99.90
21316;DHT22;10817;55.820;13.030;2024-03-29T04:14:03;5.50;99.90
21316;DHT22;10817;55.820;13.030;2024-03-29T04:16:29;5.50;99.90
21316;DHT22;10817;55.820;13.030;2024-03-29T04:18:55;5.40;99.90
21316;DHT22;10817;55.820;13.030;2024-03-29T04:21:21;5.40;99.90
21316;DHT22;10817;55.820;13.030;2024-03-29T04:23:49;5.40;99.90
21316;DHT22;10817;55.820;13.030;2024-03-29T04:26:16;5.40;99.90
21316;DHT22;10817;55.820;13.030;2024-03-29T04:28:42;5.30;99.90
21316;DHT22;10817;55.820;13.030;2024-03-29T04:31:09;5.30;99.90
21316;DHT22;10817;55.820;13.030;2024-03-29T04:33:34;5.30;99.90
21316;DHT22;10817;55.820;13.030;2024-03-29T04:36:02;5.20;99.90
21316;DHT22;10817;55.820;13.030;2024-03-29T04:38:29;5.20;99.90
21316;DHT22;10817;55.820;13.030;2024-03-29T04:40:58;5.20;99.90
21316;DHT22;10817;55.820;13.030;2024-03-29T04:43:27;5.20;99.90
21316;DHT22;10817;55.820;13.030;2024-03-29T04:46:02;5.10;99.90
21316;DHT22;10817;55.820;13.030;2024-03-29T04:48:31;5.10;99.90
21316;DHT22;10817;55.820;13.030;2024-03-29T04:50:58;5.00;99.90
21316;DHT22;10817;55.820;13.030;2024-03-29T04:53:25;4.90;99.90
21316;DHT22;10817;55.820;13.030;2024-03-29T04:55:55;4.90;99.90
21316;DHT22;10817;55.820;13.030;2024-03-29T04:58:23;5.00;99.90
21316;DHT22;10817;55.820;13.030;2024-03-29T05:00:51;5.00;99.90
21316;DHT22;10817;55.820;13.030;2024-03-29T05:03:19;5.00;99.90
21316;DHT22;10817;55.820;13.030;2024-03-29T05:05:46;5.00;99.90
21316;DHT22;10817;55.820;13.030;2024-03-29T05:08:13;5.00;99.90
21316;DHT22;10817;55.820;13.030;2024-03-29T05:10:40;5.00;99.90
21316;DHT22;10817;55.820;13.030;2024-03-29T05:13:07;5.10;99.90
21316;DHT22;10817;55.820;13.030;2024-03-29T05:15:35;5.10;99.90
21316;DHT22;10817;55.820;13.030;2024-03-29T05:18:02;5.00;99.90
21316;DHT22;10817;55.820;13.030;2024-03-29T05:20:30;5.00;99.90
21316;DHT22;10817;55.820;13.030;2024-03-29T05:22:57;5.00;99.90
21316;DHT22;10817;55.820;13.030;2024-03-29T05:25:24;4.90;99.90
21316;DHT22;10817;55.820;13.030;2024-03-29T05:27:51;4.90;99.90
21316;DHT22;10817;55.820;13.030;2024-03-29T05:30:18;4.80;99.90
21316;DHT22;10817;55.820;13.030;2024-03-29T05:32:46;4.90;99.90
21316;DHT22;10817;55.820;13.030;2024-03-29T05:35:13;5.00;99.90
21316;DHT22;10817;55.820;13.030;2024-03-29T05:37:40;5.00;99.90
21316;DHT22;10817;55.820;13.030;2024-03-29T05:40:08;5.00;99.90
21316;DHT22;10817;55.820;13.030;2024-03-29T05:42:35;5.00;99.90
21316;DHT22;10817;55.820;13.030;2024-03-29T05:45:04;5.00;99.90
21316;DHT22;10817;55.820;13.030;2024-03-29T05:47:32;5.00;99.90
21316;DHT22;10817;55.820;13.030;2024-03-29T05:50:00;5.00;99.90
21316;DHT22;10817;55.820;13.030;2024-03-29T05:52:28;5.10;99.90
21316;DHT22;10817;55.820;13.030;2024-03-29T05:54:54;5.10;99.90
21316;DHT22;10817;55.820;13.030;2024-03-29T05:57:21;5.20;99.90
21316;DHT22;10817;55.820;13.030;2024-03-29T05:59:55;5.40;99.90
21316;DHT22;10817;55.820;13.030;2024-03-29T06:02:22;5.30;99.90
21316;DHT22;10817;55.820;13.030;2024-03-29T06:04:49;5.30;99.90
21316;DHT22;10817;55.820;13.030;2024-03-29T06:07:17;5.20;99.90
21316;DHT22;10817;55.820;13.030;2024-03-29T06:09:44;5.20;99.90
21316;DHT22;10817;55.820;13.030;2024-03-29T06:12:11;5.30;99.90
21316;DHT22;10817;55.820;13.030;2024-03-29T06:14:38;5.40;99.90
21316;DHT22;10817;55.820;13.030;2024-03-29T06:17:33;3.90;99.90
21316;DHT22;10817;55.820;13.030;2024-03-29T06:20:02;5.80;99.90
21316;DHT22;10817;55.820;13.030;2024-03-29T06:22:31;6.00;99.90
21316;DHT22;10817;55.820;13.030;2024-03-29T06:24:58;6.20;99.90
21316;DHT22;10817;55.820;13.030;2024-03-29T06:27:30;6.30;99.90
21316;DHT22;10817;55.820;13.030;2024-03-29T06:29:57;6.40;99.90
21316;DHT22;10817;55.820;13.030;2024-03-29T06:32:24;7.00;99.90
21316;DHT22;10817;55.820;13.030;2024-03-29T06:34:51;6.50;99.90
21316;DHT22;10817;55.820;13.030;2024-03-29T06:37:18;6.60;99.90
21316;DHT22;10817;55.820;13.030;2024-03-29T06:39:48;6.60;99.90
21316;DHT22;10817;55.820;13.030;2024-03-29T06:42:15;6.70;99.90
21316;DHT22;10817;55.820;13.030;2024-03-29T06:44:42;6.70;99.90
21316;DHT22;10817;55.820;13.030;2024-03-29T06:47:09;6.80;99.90
21316;DHT22;10817;55.820;13.030;2024-03-29T06:49:36;6.80;99.90
21316;DHT22;10817;55.820;13.030;2024-03-29T06:52:03;6.90;99.90
21316;DHT22;10817;55.820;13.030;2024-03-29T06:54:30;6.90;99.90
21316;DHT22;10817;55.820;13.030;2024-03-29T06:56:59;6.90;99.90
21316;DHT22;10817;55.820;13.030;2024-03-29T06:59:27;7.00;99.90
21316;DHT22;10817;55.820;13.030;2024-03-29T07:01:54;7.00;99.90
21316;DHT22;10817;55.820;13.030;2024-03-29T07:04:21;8.50;99.90
21316;DHT22;10817;55.820;13.030;2024-03-29T07:06:49;7.10;99.90
21316;DHT22;10817;55.820;13.030;2024-03-29T07:09:17;7.10;99.90
21316;DHT22;10817;55.820;13.030;2024-03-29T07:11:45;7.10;99.90
21316;DHT22;10817;55.820;13.030;2024-03-29T07:14:14;7.10;99.90
21316;DHT22;10817;55.820;13.030;2024-03-29T07:16:41;7.20;99.90
21316;DHT22;10817;55.820;13.030;2024-03-29T07:19:08;7.20;99.90
21316;DHT22;10817;55.820;13.030;2024-03-29T07:21:38;7.20;99.90
21316;DHT22;10817;55.820;13.030;2024-03-29T07:24:05;7.20;99.90
21316;DHT22;10817;55.820;13.030;2024-03-29T07:26:31;9.20;99.90
21316;DHT22;10817;55.820;13.030;2024-03-29T07:28:58;7.30;99.90
21316;DHT22;10817;55.820;13.030;2024-03-29T07:31:27;7.40;99.90
21316;DHT22;10817;55.820;13.030;2024-03-29T07:33:53;7.40;99.90
21316;DHT22;10817;55.820;13.030;2024-03-29T07:36:20;7.40;99.90
21316;DHT22;10817;55.820;13.030;2024-03-29T07:38:50;7.40;99.90
21316;DHT22;10817;55.820;13.030;2024-03-29T07:41:16;7.50;99.90
21316;DHT22;10817;55.820;13.030;2024-03-29T07:43:51;7.50;99.90
21316;DHT22;10817;55.820;13.030;2024-03-29T07:46:19;7.50;99.90
21316;DHT22;10817;55.820;13.030;2024-03-29T07:48:48;7.50;99.90
21316;DHT22;10817;55.820;13.030;2024-03-29T07:51:15;7.50;99.90
21316;DHT22;10817;55.820;13.030;2024-03-29T07:53:42;7.60;99.90
21316;DHT22;10817;55.820;13.030;2024-03-29T07:56:09;7.70;99.90
21316;DHT22;10817;55.820;13.030;2024-03-29T07:58:36;7.60;99.90
21316;DHT22;10817;55.820;13.030;2024-03-29T08:01:03;7.60;99.90
21316;DHT22;10817;55.820;13.030;2024-03-29T08:03:29;7.80;99.90
21316;DHT22;10817;55.820;13.030;2024-03-29T08:05:59;7.80;99.90
21316;DHT22;10817;55.820;13.030;2024-03-29T08:08:30;7.90;99.90
21316;DHT22;10817;55.820;13.030;2024-03-29T08:10:56;7.90;99.90
21316;DHT22;10817;55.820;13.030;2024-03-29T08:13:24;8.10;99.90
21316;DHT22;10817;55.820;13.030;2024-03-29T08:15:56;8.10;99.90
21316;DHT22;10817;55.820;13.030;2024-03-29T08:18:24;8.00;99.90
21316;DHT22;10817;55.820;13.030;2024-03-29T08:20:51;8.00;99.90
21316;DHT22;10817;55.820;13.030;2024-03-29T08:23:20;8.10;99.90
21316;DHT22;10817;55.820;13.030;2024-03-29T08:25:47;8.20;99.90
21316;DHT22;10817;55.820;13.030;2024-03-29T08:28:14;8.20;99.90
21316;DHT22;10817;55.820;13.030;2024-03-29T08:30:41;8.20;99.90
21316;DHT22;10817;55.820;13.030;2024-03-29T08:33:08;8.30;99.90
21316;DHT22;10817;55.820;13.030;2024-03-29T08:35:35;8.40;99.90
21316;DHT22;10817;55.820;13.030;2024-03-29T08:38:02;8.40;99.90
21316;DHT22;10817;55.820;13.030;2024-03-29T08:40:30;8.50;99.90
21316;DHT22;10817;55.820;13.030;2024-03-29T08:42:59;8.60;99.90
21316;DHT22;10817;55.820;13.030;2024-03-29T08:45:26;8.60;99.90
21316;DHT22;10817;55.820;13.030;2024-03-29T08:47:53;8.60;99.90
21316;DHT22;10817;55.820;13.030;2024-03-29T08:50:20;8.70;99.90
21316;DHT22;10817;55.820;13.030;2024-03-29T08:52:47;8.60;99.90
21316;DHT22;10817;55.820;13.030;2024-03-29T08:55:14;8.70;99.90
21316;DHT22;10817;55.820;13.030;2024-03-29T08:57:42;8.80;99.90
21316;DHT22;10817;55.820;13.030;2024-03-29T09:00:09;9.00;99.90
21316;DHT22;10817;55.820;13.030;2024-03-29T09:02:36;9.10;99.90
21316;DHT22;10817;55.820;13.030;2024-03-29T09:05:04;9.20;99.90
21316;DHT22;10817;55.820;13.030;2024-03-29T09:07:31;9.10;99.90
21316;DHT22;10817;55.820;13.030;2024-03-29T09:09:57;9.20;99.90
21316;DHT22;10817;55.820;13.030;2024-03-29T09:12:24;9.10;99.90
21316;DHT22;10817;55.820;13.030;2024-03-29T09:14:52;9.20;99.90
21316;DHT22;10817;55.820;13.030;2024-03-29T09:17:19;9.30;99.90
21316;DHT22;10817;55.820;13.030;2024-03-29T09:19:49;9.50;99.90
21316;DHT22;10817;55.820;13.030;2024-03-29T09:22:16;9.40;99.90
21316;DHT22;10817;55.820;13.030;2024-03-29T09:24:43;9.50;99.90
21316;DHT22;10817;55.820;13.030;2024-03-29T09:27:10;9.50;99.90
21316;DHT22;10817;55.820;13.030;2024-03-29T09:29:37;9.50;99.90
21316;DHT22;10817;55.820;13.030;2024-03-29T09:32:05;9.80;99.90
21316;DHT22;10817;55.820;13.030;2024-03-29T09:34:33;9.80;99.90
21316;DHT22;10817;55.820;13.030;2024-03-29T09:37:00;9.70;99.90
21316;DHT22;10817;55.820;13.030;2024-03-29T09:39:27;9.80;99.90
21316;DHT22;10817;55.820;13.030;2024-03-29T09:41:57;9.90;99.90
21316;DHT22;10817;55.820;13.030;2024-03-29T09:44:26;10.00;99.90
21316;DHT22;10817;55.820;13.030;2024-03-29T09:46:56;10.10;99.90
21316;DHT22;10817;55.820;13.030;2024-03-29T09:49:27;11.80;99.90
21316;DHT22;10817;55.820;13.030;2024-03-29T09:51:54;10.10;99.90
21316;DHT22;10817;55.820;13.030;2024-03-29T09:54:21;9.80;99.90
21316;DHT22;10817;55.820;13.030;2024-03-29T09:56:49;10.50;99.90
21316;DHT22;10817;55.820;13.030;2024-03-29T09:59:16;9.60;99.90
21316;DHT22;10817;55.820;13.030;2024-03-29T10:01:43;9.60;99.90
21316;DHT22;10817;55.820;13.030;2024-03-29T10:04:10;9.60;99.90
21316;DHT22;10817;55.820;13.030;2024-03-29T10:06:39;9.70;99.90
21316;DHT22;10817;55.820;13.030;2024-03-29T10:09:08;9.50;99.90
21316;DHT22;10817;55.820;13.030;2024-03-29T10:11:36;9.40;99.90
21316;DHT22;10817;55.820;13.030;2024-03-29T10:14:03;9.10;99.90
21316;DHT22;10817;55.820;13.030;2024-03-29T10:16:31;9.10;99.90
21316;DHT22;10817;55.820;13.030;2024-03-29T10:18:59;9.20;99.90
21316;DHT22;10817;55.820;13.030;2024-03-29T10:21:26;9.30;99.90
21316;DHT22;10817;55.820;13.030;2024-03-29T10:23:54;9.40;99.90
21316;DHT22;10817;55.820;13.030;2024-03-29T10:26:21;9.70;99.90
21316;DHT22;10817;55.820;13.030;2024-03-29T10:28:48;10.10;99.90
21316;DHT22;10817;55.820;13.030;2024-03-29T10:31:17;10.60;99.90
21316;DHT22;10817;55.820;13.030;2024-03-29T10:33:45;11.70;99.90
21316;DHT22;10817;55.820;13.030;2024-03-29T10:36:13;10.00;99.90
21316;DHT22;10817;55.820;13.030;2024-03-29T10:38:40;10.00;99.90
21316;DHT22;10817;55.820;13.030;2024-03-29T10:41:09;11.70;99.90
21316;DHT22;10817;55.820;13.030;2024-03-29T10:43:38;10.00;99.90
21316;DHT22;10817;55.820;13.030;2024-03-29T10:46:05;9.90;99.90
21316;DHT22;10817;55.820;13.030;2024-03-29T10:48:33;10.40;99.90
21316;DHT22;10817;55.820;13.030;2024-03-29T10:51:01;9.70;99.90
21316;DHT22;10817;55.820;13.030;2024-03-29T10:53:29;10.00;99.90
21316;DHT22;10817;55.820;13.030;2024-03-29T10:55:58;9.90;99.90
21316;DHT22;10817;55.820;13.030;2024-03-29T10:58:30;10.00;99.90
21316;DHT22;10817;55.820;13.030;2024-03-29T11:00:57;10.00;99.90
21316;DHT22;10817;55.820;13.030;2024-03-29T11:03:32;9.90;99.90
21316;DHT22;10817;55.820;13.030;2024-03-29T11:06:03;9.70;99.90
21316;DHT22;10817;55.820;13.030;2024-03-29T11:08:32;9.60;99.90
21316;DHT22;10817;55.820;13.030;2024-03-29T11:11:04;9.70;99.90
21316;DHT22;10817;55.820;13.030;2024-03-29T11:13:37;9.60;99.90
21316;DHT22;10817;55.820;13.030;2024-03-29T11:16:04;9.90;99.90
21316;DHT22;10817;55.820;13.030;2024-03-29T11:18:32;9.90;99.90
21316;DHT22;10817;55.820;13.030;2024-03-29T11:21:01;10.00;99.90
21316;DHT22;10817;55.820;13.030;2024-03-29T11:23:31;10.30;99.90
21316;DHT22;10817;55.820;13.030;2024-03-29T11:25:59;10.60;99.90
21316;DHT22;10817;55.820;13.030;2024-03-29T11:28:28;10.80;99.90
21316;DHT22;10817;55.820;13.030;2024-03-29T11:31:01;10.70;99.90
21316;DHT22;10817;55.820;13.030;2024-03-29T11:33:34;10.70;99.90
21316;DHT22;10817;55.820;13.030;2024-03-29T11:36:09;11.30;99.90
21316;DHT22;10817;55.820;13.030;2024-03-29T11:38:37;12.10;99.90
21316;DHT22;10817;55.820;13.030;2024-03-29T11:41:05;12.20;99.90
21316;DHT22;10817;55.820;13.030;2024-03-29T11:43:33;12.40;99.90
21316;DHT22;10817;55.820;13.030;2024-03-29T11:46:02;11.50;99.90
21316;DHT22;10817;55.820;13.030;2024-03-29T11:48:30;11.10;99.90
21316;DHT22;10817;55.820;13.030;2024-03-29T11:50:58;10.30;99.90
21316;DHT22;10817;55.820;13.030;2024-03-29T11:53:25;10.00;99.90
21316;DHT22;10817;55.820;13.030;2024-03-29T11:55:53;9.70;99.90
21316;DHT22;10817;55.820;13.030;2024-03-29T11:58:21;9.50;99.90
21316;DHT22;10817;55.820;13.030;2024-03-29T12:00:48;9.30;99.90
21316;DHT22;10817;55.820;13.030;2024-03-29T12:03:18;9.30;99.90
21316;DHT22;10817;55.820;13.030;2024-03-29T12:05:46;9.20;99.90
21316;DHT22;10817;55.820;13.030;2024-03-29T12:08:13;9.20;99.90
21316;DHT22;10817;55.820;13.030;2024-03-29T12:10:40;9.20;99.90
21316;DHT22;10817;55.820;13.030;2024-03-29T12:13:08;9.20;99.90
21316;DHT22;10817;55.820;13.030;2024-03-29T12:15:35;9.10;99.90
21316;DHT22;10817;55.820;13.030;2024-03-29T12:18:03;9.10;99.90
21316;DHT22;10817;55.820;13.030;2024-03-29T12:20:32;9.10;99.90
21316;DHT22;10817;55.820;13.030;2024-03-29T12:23:00;9.10;99.90
21316;DHT22;10817;55.820;13.030;2024-03-29T12:25:28;9.20;99.90
21316;DHT22;10817;55.820;13.030;2024-03-29T12:27:55;9.30;99.90
21316;DHT22;10817;55.820;13.030;2024-03-29T12:30:22;9.40;99.90
21316;DHT22;10817;55.820;13.030;2024-03-29T12:32:59;9.50;99.90
21316;DHT22;10817;55.820;13.030;2024-03-29T12:35:27;10.90;99.90
21316;DHT22;10817;55.820;13.030;2024-03-29T12:37:58;9.50;99.90
21316;DHT22;10817;55.820;13.030;2024-03-29T12:40:26;9.40;99.90
21316;DHT22;10817;55.820;13.030;2024-03-29T12:42:55;9.40;99.90
21316;DHT22;10817;55.820;13.030;2024-03-29T12:45:22;9.30;99.90
21316;DHT22;10817;55.820;13.030;2024-03-29T12:47:49;9.30;99.90
21316;DHT22;10817;55.820;13.030;2024-03-29T12:50:25;9.20;99.90
21316;DHT22;10817;55.820;13.030;2024-03-29T12:52:55;9.10;99.90
21316;DHT22;10817;55.820;13.030;2024-03-29T12:55:23;9.00;99.90
21316;DHT22;10817;55.820;13.030;2024-03-29T12:57:50;9.00;99.90
21316;DHT22;10817;55.820;13.030;2024-03-29T13:00:19;8.90;99.90
21316;DHT22;10817;55.820;13.030;2024-03-29T13:02:46;8.90;99.90
21316;DHT22;10817;55.820;13.030;2024-03-29T13:05:13;8.90;99.90
21316;DHT22;10817;55.820;13.030;2024-03-29T13:07:40;8.80;99.90
21316;DHT22;10817;55.820;13.030;2024-03-29T13:10:09;8.70;99.90
21316;DHT22;10817;55.820;13.030;2024-03-29T13:12:39;8.70;99.90
21316;DHT22;10817;55.820;13.030;2024-03-29T13:15:15;8.60;99.90
21316;DHT22;10817;55.820;13.030;2024-03-29T13:17:43;8.50;99.90
21316;DHT22;10817;55.820;13.030;2024-03-29T13:20:11;8.50;99.90
21316;DHT22;10817;55.820;13.030;2024-03-29T13:22:38;8.40;99.90
21316;DHT22;10817;55.820;13.030;2024-03-29T13:25:09;8.30;99.90
21316;DHT22;10817;55.820;13.030;2024-03-29T13:27:36;8.20;99.90
21316;DHT22;10817;55.820;13.030;2024-03-29T13:30:04;8.10;99.90
21316;DHT22;10817;55.820;13.030;2024-03-29T13:32:32;8.10;99.90
21316;DHT22;10817;55.820;13.030;2024-03-29T13:34:59;8.10;99.90
21316;DHT22;10817;55.820;13.030;2024-03-29T13:37:27;8.10;99.90
21316;DHT22;10817;55.820;13.030;2024-03-29T13:39:55;8.00;99.90
21316;DHT22;10817;55.820;13.030;2024-03-29T13:42:23;8.00;99.90
21316;DHT22;10817;55.820;13.030;2024-03-29T13:44:50;7.70;99.90
21316;DHT22;10817;55.820;13.030;2024-03-29T13:47:17;7.70;99.90
21316;DHT22;10817;55.820;13.030;2024-03-29T13:49:44;7.70;99.90
21316;DHT22;10817;55.820;13.030;2024-03-29T13:52:11;7.70;99.90
21316;DHT22;10817;55.820;13.030;2024-03-29T13:54:42;7.70;99.90
21316;DHT22;10817;55.820;13.030;2024-03-29T13:57:11;7.70;99.90
21316;DHT22;10817;55.820;13.030;2024-03-29T13:59:40;7.70;99.90
21316;DHT22;10817;55.820;13.030;2024-03-29T14:02:10;7.70;99.90
21316;DHT22;10817;55.820;13.030;2024-03-29T14:04:37;7.70;99.90
21316;DHT22;10817;55.820;13.030;2024-03-29T14:07:04;7.70;99.90
21316;DHT22;10817;55.820;13.030;2024-03-29T14:09:34;7.70;99.90
21316;DHT22;10817;55.820;13.030;2024-03-29T14:12:01;7.80;99.90
21316;DHT22;10817;55.820;13.030;2024-03-29T14:14:29;7.80;99.90
21316;DHT22;10817;55.820;13.030;2024-03-29T14:16:57;7.80;99.90
21316;DHT22;10817;55.820;13.030;2024-03-29T14:19:24;7.80;99.90
21316;DHT22;10817;55.820;13.030;2024-03-29T14:21:52;7.90;99.90
21316;DHT22;10817;55.820;13.030;2024-03-29T14:24:19;8.00;99.90
21316;DHT22;10817;55.820;13.030;2024-03-29T14:26:45;8.00;99.90
21316;DHT22;10817;55.820;13.030;2024-03-29T14:29:12;8.00;99.90
21316;DHT22;10817;55.820;13.030;2024-03-29T14:31:40;8.10;99.90
21316;DHT22;10817;55.820;13.030;2024-03-29T14:34:11;8.50;99.90
21316;DHT22;10817;55.820;13.030;2024-03-29T14:36:40;8.00;99.90
21316;DHT22;10817;55.820;13.030;2024-03-29T14:39:07;9.70;99.90
21316;DHT22;10817;55.820;13.030;2024-03-29T14:41:35;8.00;99.90
21316;DHT22;10817;55.820;13.030;2024-03-29T14:44:05;8.10;99.90
21316;DHT22;10817;55.820;13.030;2024-03-29T14:46:32;8.10;99.90
21316;DHT22;10817;55.820;13.030;2024-03-29T14:48:59;8.10;99.90
21316;DHT22;10817;55.820;13.030;2024-03-29T14:51:30;8.00;99.90
21316;DHT22;10817;55.820;13.030;2024-03-29T14:53:57;7.90;99.90
21316;DHT22;10817;55.820;13.030;2024-03-29T14:56:23;8.00;99.90
21316;DHT22;10817;55.820;13.030;2024-03-29T14:58:51;7.80;99.90
21316;DHT22;10817;55.820;13.030;2024-03-29T15:01:18;7.90;99.90
21316;DHT22;10817;55.820;13.030;2024-03-29T15:03:44;7.90;99.90
21316;DHT22;10817;55.820;13.030;2024-03-29T15:06:11;8.80;99.90
21316;DHT22;10817;55.820;13.030;2024-03-29T15:08:39;8.90;99.90
21316;DHT22;10817;55.820;13.030;2024-03-29T15:11:06;7.80;99.90
21316;DHT22;10817;55.820;13.030;2024-03-29T15:13:33;7.80;99.90
21316;DHT22;10817;55.820;13.030;2024-03-29T15:16:00;8.80;99.90
21316;DHT22;10817;55.820;13.030;2024-03-29T15:18:31;7.90;99.90
21316;DHT22;10817;55.820;13.030;2024-03-29T15:21:00;8.50;99.90
21316;DHT22;10817;55.820;13.030;2024-03-29T15:23:27;7.70;99.90
21316;DHT22;10817;55.820;13.030;2024-03-29T15:33:57;7.70;99.90
21316;DHT22;10817;55.820;13.030;2024-03-29T15:36:24;8.80;99.90
21316;DHT22;10817;55.820;13.030;2024-03-29T15:38:51;7.50;99.90
21316;DHT22;10817;55.820;13.030;2024-03-29T15:41:20;8.00;99.90
21316;DHT22;10817;55.820;13.030;2024-03-29T15:43:47;7.40;99.90
21316;DHT22;10817;55.820;13.030;2024-03-29T15:46:14;7.40;99.90
21316;DHT22;10817;55.820;13.030;2024-03-29T15:48:41;7.50;99.90
21316;DHT22;10817;55.820;13.030;2024-03-29T15:51:10;7.40;99.90